sensor_id;sensor_type;location;lat;lon;timestamp;P1;durP1;ratioP1;P2;durP2;ratioP2
45103;SDS011;30865;51.288;4.572;2023-04-06T00:02:20;14.80;;;6.40;;
45103;SDS011;30865;51.288;4.572;2023-04-06T00:04:46;9.10;;;6.20;;
45103;SDS011;30865;51.288;4.572;2023-04-06T00:07:11;15.60;;;7.57;;
45103;SDS011;30865;51.288;4.572;2023-04-06T00:09:37;13.13;;;7.13;;
45103;SDS011;30865;51.288;4.572;2023-04-06T00:12:02;12.75;;;5.97;;
45103;SDS011;30865;51.288;4.572;2023-04-06T00:14:28;9.70;;;6.25;;
45103;SDS011;30865;51.288;4.572;2023-04-06T00:16:53;11.85;;;6.68;;
45103;SDS011;30865;51.288;4.572;2023-04-06T00:19:20;10.55;;;6.90;;
45103;SDS011;30865;51.288;4.572;2023-04-06T00:21:45;17.58;;;7.40;;
45103;SDS011;30865;51.288;4.572;2023-04-06T00:24:11;13.82;;;7.57;;
45103;SDS011;30865;51.288;4.572;2023-04-06T00:26:36;12.82;;;7.88;;
45103;SDS011;30865;51.288;4.572;2023-04-06T00:29:02;12.52;;;7.30;;
45103;SDS011;30865;51.288;4.572;2023-04-06T00:31:27;15.65;;;7.82;;
45103;SDS011;30865;51.288;4.572;2023-04-06T00:33:53;11.13;;;6.70;;
45103;SDS011;30865;51.288;4.572;2023-04-06T00:36:18;12.25;;;7.18;;
45103;SDS011;30865;51.288;4.572;2023-04-06T00:38:44;12.27;;;7.43;;
45103;SDS011;30865;51.288;4.572;2023-04-06T00:41:09;13.23;;;6.97;;
45103;SDS011;30865;51.288;4.572;2023-04-06T00:43:36;13.20;;;7.65;;
45103;SDS011;30865;51.288;4.572;2023-04-06T00:46:01;15.63;;;7.53;;
45103;SDS011;30865;51.288;4.572;2023-04-06T00:48:27;14.93;;;7.95;;
45103;SDS011;30865;51.288;4.572;2023-04-06T00:50:52;10.75;;;6.90;;
45103;SDS011;30865;51.288;4.572;2023-04-06T00:53:18;14.23;;;7.45;;
45103;SDS011;30865;51.288;4.572;2023-04-06T00:55:43;10.80;;;6.88;;
45103;SDS011;30865;51.288;4.572;2023-04-06T00:58:09;13.48;;;7.53;;
45103;SDS011;30865;51.288;4.572;2023-04-06T01:00:34;13.15;;;6.55;;
45103;SDS011;30865;51.288;4.572;2023-04-06T01:03:00;11.95;;;7.45;;
45103;SDS011;30865;51.288;4.572;2023-04-06T01:05:26;14.80;;;6.15;;
45103;SDS011;30865;51.288;4.572;2023-04-06T01:07:51;12.25;;;6.97;;
45103;SDS011;30865;51.288;4.572;2023-04-06T01:10:26;12.07;;;7.82;;
45103;SDS011;30865;51.288;4.572;2023-04-06T01:12:53;11.32;;;7.25;;
45103;SDS011;30865;51.288;4.572;2023-04-06T01:15:19;13.25;;;7.55;;
45103;SDS011;30865;51.288;4.572;2023-04-06T01:17:45;13.27;;;7.78;;
45103;SDS011;30865;51.288;4.572;2023-04-06T01:20:11;12.38;;;8.25;;
45103;SDS011;30865;51.288;4.572;2023-04-06T01:22:36;11.93;;;7.30;;
45103;SDS011;30865;51.288;4.572;2023-04-06T01:25:02;11.43;;;7.03;;
45103;SDS011;30865;51.288;4.572;2023-04-06T01:27:28;14.30;;;7.88;;
45103;SDS011;30865;51.288;4.572;2023-04-06T01:29:54;11.65;;;7.57;;
45103;SDS011;30865;51.288;4.572;2023-04-06T01:32:20;11.80;;;7.55;;
45103;SDS011;30865;51.288;4.572;2023-04-06T01:34:46;16.55;;;9.13;;
45103;SDS011;30865;51.288;4.572;2023-04-06T01:37:11;13.60;;;7.25;;
45103;SDS011;30865;51.288;4.572;2023-04-06T01:39:37;13.30;;;7.68;;
45103;SDS011;30865;51.288;4.572;2023-04-06T01:42:03;11.68;;;7.13;;
45103;SDS011;30865;51.288;4.572;2023-04-06T01:44:28;11.15;;;7.05;;
45103;SDS011;30865;51.288;4.572;2023-04-06T01:46:55;12.60;;;7.88;;
45103;SDS011;30865;51.288;4.572;2023-04-06T01:49:21;14.70;;;8.30;;
45103;SDS011;30865;51.288;4.572;2023-04-06T01:51:47;10.05;;;7.20;;
45103;SDS011;30865;51.288;4.572;2023-04-06T01:54:12;12.43;;;7.57;;
45103;SDS011;30865;51.288;4.572;2023-04-06T01:56:38;19.00;;;8.93;;
45103;SDS011;30865;51.288;4.572;2023-04-06T01:59:03;13.25;;;7.68;;
45103;SDS011;30865;51.288;4.572;2023-04-06T02:01:29;16.38;;;7.93;;
45103;SDS011;30865;51.288;4.572;2023-04-06T02:03:54;12.65;;;7.53;;
45103;SDS011;30865;51.288;4.572;2023-04-06T02:06:20;11.95;;;7.88;;
45103;SDS011;30865;51.288;4.572;2023-04-06T02:08:45;12.20;;;7.30;;
45103;SDS011;30865;51.288;4.572;2023-04-06T02:11:11;15.10;;;8.52;;
45103;SDS011;30865;51.288;4.572;2023-04-06T02:13:36;16.77;;;7.72;;
45103;SDS011;30865;51.288;4.572;2023-04-06T02:16:02;16.05;;;9.07;;
45103;SDS011;30865;51.288;4.572;2023-04-06T02:18:28;12.80;;;8.75;;
45103;SDS011;30865;51.288;4.572;2023-04-06T02:20:55;17.05;;;8.63;;
45103;SDS011;30865;51.288;4.572;2023-04-06T02:23:20;14.48;;;8.25;;
45103;SDS011;30865;51.288;4.572;2023-04-06T02:25:46;16.30;;;8.07;;
45103;SDS011;30865;51.288;4.572;2023-04-06T02:28:11;14.20;;;7.80;;
45103;SDS011;30865;51.288;4.572;2023-04-06T02:30:37;15.43;;;9.05;;
45103;SDS011;30865;51.288;4.572;2023-04-06T02:33:02;15.27;;;8.57;;
45103;SDS011;30865;51.288;4.572;2023-04-06T02:35:28;15.00;;;8.07;;
45103;SDS011;30865;51.288;4.572;2023-04-06T02:37:55;12.00;;;8.32;;
45103;SDS011;30865;51.288;4.572;2023-04-06T02:40:21;15.30;;;8.55;;
45103;SDS011;30865;51.288;4.572;2023-04-06T02:42:46;12.80;;;8.07;;
45103;SDS011;30865;51.288;4.572;2023-04-06T02:45:12;12.02;;;8.40;;
45103;SDS011;30865;51.288;4.572;2023-04-06T02:47:37;14.65;;;8.13;;
45103;SDS011;30865;51.288;4.572;2023-04-06T02:50:03;13.43;;;8.85;;
45103;SDS011;30865;51.288;4.572;2023-04-06T02:52:29;10.80;;;8.07;;
45103;SDS011;30865;51.288;4.572;2023-04-06T02:54:55;17.73;;;8.32;;
45103;SDS011;30865;51.288;4.572;2023-04-06T02:57:20;17.17;;;8.48;;
45103;SDS011;30865;51.288;4.572;2023-04-06T02:59:46;13.40;;;7.70;;
45103;SDS011;30865;51.288;4.572;2023-04-06T03:02:11;15.32;;;8.52;;
45103;SDS011;30865;51.288;4.572;2023-04-06T03:04:37;14.27;;;8.85;;
45103;SDS011;30865;51.288;4.572;2023-04-06T03:07:02;13.52;;;8.50;;
45103;SDS011;30865;51.288;4.572;2023-04-06T03:09:28;16.70;;;9.52;;
45103;SDS011;30865;51.288;4.572;2023-04-06T03:11:53;12.18;;;7.70;;
45103;SDS011;30865;51.288;4.572;2023-04-06T03:14:20;15.65;;;8.55;;
45103;SDS011;30865;51.288;4.572;2023-04-06T03:16:48;12.95;;;7.78;;
45103;SDS011;30865;51.288;4.572;2023-04-06T03:19:14;13.10;;;8.98;;
45103;SDS011;30865;51.288;4.572;2023-04-06T03:21:40;14.93;;;8.18;;
45103;SDS011;30865;51.288;4.572;2023-04-06T03:24:06;12.85;;;8.38;;
45103;SDS011;30865;51.288;4.572;2023-04-06T03:26:32;15.07;;;8.70;;
45103;SDS011;30865;51.288;4.572;2023-04-06T03:28:57;16.50;;;9.45;;
45103;SDS011;30865;51.288;4.572;2023-04-06T03:31:23;15.82;;;9.38;;
45103;SDS011;30865;51.288;4.572;2023-04-06T03:33:48;12.63;;;8.68;;
45103;SDS011;30865;51.288;4.572;2023-04-06T03:36:14;14.55;;;8.57;;
45103;SDS011;30865;51.288;4.572;2023-04-06T03:38:39;14.27;;;8.25;;
45103;SDS011;30865;51.288;4.572;2023-04-06T03:41:05;12.30;;;7.97;;
45103;SDS011;30865;51.288;4.572;2023-04-06T03:43:30;17.05;;;8.80;;
45103;SDS011;30865;51.288;4.572;2023-04-06T03:45:56;16.13;;;8.20;;
45103;SDS011;30865;51.288;4.572;2023-04-06T03:48:21;18.02;;;9.23;;
45103;SDS011;30865;51.288;4.572;2023-04-06T03:50:46;18.10;;;9.23;;
45103;SDS011;30865;51.288;4.572;2023-04-06T03:53:12;13.93;;;8.80;;
45103;SDS011;30865;51.288;4.572;2023-04-06T03:55:37;14.15;;;9.05;;
45103;SDS011;30865;51.288;4.572;2023-04-06T03:58:03;20.83;;;9.15;;
45103;SDS011;30865;51.288;4.572;2023-04-06T04:00:28;24.88;;;10.15;;
45103;SDS011;30865;51.288;4.572;2023-04-06T04:02:54;22.85;;;10.43;;
45103;SDS011;30865;51.288;4.572;2023-04-06T04:05:20;16.17;;;9.48;;
45103;SDS011;30865;51.288;4.572;2023-04-06T04:07:49;19.47;;;10.33;;
45103;SDS011;30865;51.288;4.572;2023-04-06T04:10:16;15.23;;;9.02;;
45103;SDS011;30865;51.288;4.572;2023-04-06T04:12:41;24.98;;;10.07;;
45103;SDS011;30865;51.288;4.572;2023-04-06T04:15:07;18.38;;;9.35;;
45103;SDS011;30865;51.288;4.572;2023-04-06T04:17:33;27.27;;;10.73;;
45103;SDS011;30865;51.288;4.572;2023-04-06T04:19:58;17.23;;;9.13;;
45103;SDS011;30865;51.288;4.572;2023-04-06T04:22:24;18.80;;;9.60;;
45103;SDS011;30865;51.288;4.572;2023-04-06T04:24:49;18.52;;;10.27;;
45103;SDS011;30865;51.288;4.572;2023-04-06T04:27:15;16.80;;;9.88;;
45103;SDS011;30865;51.288;4.572;2023-04-06T04:29:40;20.55;;;9.60;;
45103;SDS011;30865;51.288;4.572;2023-04-06T04:32:06;17.80;;;10.10;;
45103;SDS011;30865;51.288;4.572;2023-04-06T04:34:31;19.10;;;9.38;;
45103;SDS011;30865;51.288;4.572;2023-04-06T04:36:57;18.08;;;8.60;;
45103;SDS011;30865;51.288;4.572;2023-04-06T04:39:23;15.30;;;9.82;;
45103;SDS011;30865;51.288;4.572;2023-04-06T04:41:48;21.50;;;9.65;;
45103;SDS011;30865;51.288;4.572;2023-04-06T04:44:14;20.92;;;9.20;;
45103;SDS011;30865;51.288;4.572;2023-04-06T04:46:40;15.52;;;8.93;;
45103;SDS011;30865;51.288;4.572;2023-04-06T04:49:06;15.07;;;8.25;;
45103;SDS011;30865;51.288;4.572;2023-04-06T04:51:31;16.92;;;8.48;;
45103;SDS011;30865;51.288;4.572;2023-04-06T04:53:57;17.33;;;8.98;;
45103;SDS011;30865;51.288;4.572;2023-04-06T04:56:23;22.67;;;9.70;;
45103;SDS011;30865;51.288;4.572;2023-04-06T04:58:49;20.42;;;9.23;;
45103;SDS011;30865;51.288;4.572;2023-04-06T05:01:14;16.45;;;9.25;;
45103;SDS011;30865;51.288;4.572;2023-04-06T05:03:40;20.52;;;9.23;;
45103;SDS011;30865;51.288;4.572;2023-04-06T05:06:06;14.50;;;9.30;;
45103;SDS011;30865;51.288;4.572;2023-04-06T05:08:32;26.92;;;10.63;;
45103;SDS011;30865;51.288;4.572;2023-04-06T05:10:58;25.13;;;9.60;;
45103;SDS011;30865;51.288;4.572;2023-04-06T05:13:24;22.60;;;9.90;;
45103;SDS011;30865;51.288;4.572;2023-04-06T05:15:49;20.83;;;8.63;;
45103;SDS011;30865;51.288;4.572;2023-04-06T05:18:15;16.38;;;9.85;;
45103;SDS011;30865;51.288;4.572;2023-04-06T05:20:41;20.33;;;10.05;;
45103;SDS011;30865;51.288;4.572;2023-04-06T05:23:07;17.98;;;8.88;;
45103;SDS011;30865;51.288;4.572;2023-04-06T05:25:33;22.70;;;10.85;;
45103;SDS011;30865;51.288;4.572;2023-04-06T05:27:58;16.05;;;9.05;;
45103;SDS011;30865;51.288;4.572;2023-04-06T05:30:24;16.98;;;8.60;;
45103;SDS011;30865;51.288;4.572;2023-04-06T05:32:50;15.23;;;8.63;;
45103;SDS011;30865;51.288;4.572;2023-04-06T05:35:16;19.55;;;9.73;;
45103;SDS011;30865;51.288;4.572;2023-04-06T05:37:42;18.73;;;8.95;;
45103;SDS011;30865;51.288;4.572;2023-04-06T05:40:08;15.35;;;8.73;;
45103;SDS011;30865;51.288;4.572;2023-04-06T05:42:37;15.25;;;10.05;;
45103;SDS011;30865;51.288;4.572;2023-04-06T05:45:04;22.92;;;10.07;;
45103;SDS011;30865;51.288;4.572;2023-04-06T05:47:31;19.48;;;9.52;;
45103;SDS011;30865;51.288;4.572;2023-04-06T05:49:56;15.30;;;9.68;;
45103;SDS011;30865;51.288;4.572;2023-04-06T05:52:22;14.18;;;8.27;;
45103;SDS011;30865;51.288;4.572;2023-04-06T05:54:47;16.85;;;8.50;;
45103;SDS011;30865;51.288;4.572;2023-04-06T05:57:13;17.63;;;9.45;;
45103;SDS011;30865;51.288;4.572;2023-04-06T05:59:38;27.10;;;10.40;;
45103;SDS011;30865;51.288;4.572;2023-04-06T06:02:04;44.42;;;12.85;;
45103;SDS011;30865;51.288;4.572;2023-04-06T06:04:30;23.88;;;10.02;;
45103;SDS011;30865;51.288;4.572;2023-04-06T06:06:55;16.98;;;8.88;;
45103;SDS011;30865;51.288;4.572;2023-04-06T06:09:21;18.67;;;9.00;;
45103;SDS011;30865;51.288;4.572;2023-04-06T06:11:47;21.88;;;8.85;;
45103;SDS011;30865;51.288;4.572;2023-04-06T06:14:13;17.92;;;9.45;;
45103;SDS011;30865;51.288;4.572;2023-04-06T06:16:40;15.38;;;8.45;;
45103;SDS011;30865;51.288;4.572;2023-04-06T06:19:05;14.60;;;8.80;;
45103;SDS011;30865;51.288;4.572;2023-04-06T06:21:31;17.67;;;8.75;;
45103;SDS011;30865;51.288;4.572;2023-04-06T06:23:56;16.92;;;8.82;;
45103;SDS011;30865;51.288;4.572;2023-04-06T06:26:22;14.48;;;8.10;;
45103;SDS011;30865;51.288;4.572;2023-04-06T06:28:47;12.93;;;8.40;;
45103;SDS011;30865;51.288;4.572;2023-04-06T06:31:13;16.27;;;8.30;;
45103;SDS011;30865;51.288;4.572;2023-04-06T06:33:39;14.70;;;7.43;;
45103;SDS011;30865;51.288;4.572;2023-04-06T06:36:04;19.33;;;8.43;;
45103;SDS011;30865;51.288;4.572;2023-04-06T06:38:30;24.45;;;8.02;;
45103;SDS011;30865;51.288;4.572;2023-04-06T06:40:56;21.17;;;8.57;;
45103;SDS011;30865;51.288;4.572;2023-04-06T06:43:21;16.92;;;7.95;;
45103;SDS011;30865;51.288;4.572;2023-04-06T06:45:47;18.17;;;7.13;;
45103;SDS011;30865;51.288;4.572;2023-04-06T06:48:12;14.18;;;8.48;;
45103;SDS011;30865;51.288;4.572;2023-04-06T06:50:38;15.25;;;7.63;;
45103;SDS011;30865;51.288;4.572;2023-04-06T06:53:03;21.13;;;8.43;;
45103;SDS011;30865;51.288;4.572;2023-04-06T06:55:29;22.95;;;9.25;;
45103;SDS011;30865;51.288;4.572;2023-04-06T06:57:54;18.98;;;8.63;;
45103;SDS011;30865;51.288;4.572;2023-04-06T07:00:20;15.85;;;8.00;;
45103;SDS011;30865;51.288;4.572;2023-04-06T07:02:46;15.73;;;8.13;;
45103;SDS011;30865;51.288;4.572;2023-04-06T07:05:12;14.75;;;7.70;;
45103;SDS011;30865;51.288;4.572;2023-04-06T07:07:38;14.00;;;8.25;;
45103;SDS011;30865;51.288;4.572;2023-04-06T07:10:04;14.32;;;7.63;;
45103;SDS011;30865;51.288;4.572;2023-04-06T07:12:30;13.38;;;7.55;;
45103;SDS011;30865;51.288;4.572;2023-04-06T07:14:56;14.55;;;7.38;;
45103;SDS011;30865;51.288;4.572;2023-04-06T07:17:21;20.63;;;7.63;;
45103;SDS011;30865;51.288;4.572;2023-04-06T07:19:47;20.60;;;8.13;;
45103;SDS011;30865;51.288;4.572;2023-04-06T07:22:12;29.25;;;9.43;;
45103;SDS011;30865;51.288;4.572;2023-04-06T07:24:38;17.95;;;7.82;;
45103;SDS011;30865;51.288;4.572;2023-04-06T07:27:03;17.17;;;7.28;;
45103;SDS011;30865;51.288;4.572;2023-04-06T07:29:29;12.82;;;6.68;;
45103;SDS011;30865;51.288;4.572;2023-04-06T07:31:55;19.20;;;7.75;;
45103;SDS011;30865;51.288;4.572;2023-04-06T07:34:21;11.80;;;7.68;;
45103;SDS011;30865;51.288;4.572;2023-04-06T07:36:47;15.32;;;8.02;;
45103;SDS011;30865;51.288;4.572;2023-04-06T07:39:12;12.25;;;7.68;;
45103;SDS011;30865;51.288;4.572;2023-04-06T07:41:38;11.95;;;7.18;;
45103;SDS011;30865;51.288;4.572;2023-04-06T07:44:04;14.07;;;7.25;;
45103;SDS011;30865;51.288;4.572;2023-04-06T07:46:30;14.40;;;7.10;;
45103;SDS011;30865;51.288;4.572;2023-04-06T07:48:56;13.23;;;7.47;;
45103;SDS011;30865;51.288;4.572;2023-04-06T07:51:23;14.85;;;6.80;;
45103;SDS011;30865;51.288;4.572;2023-04-06T07:53:55;16.33;;;8.30;;
45103;SDS011;30865;51.288;4.572;2023-04-06T07:56:20;15.18;;;7.03;;
45103;SDS011;30865;51.288;4.572;2023-04-06T07:58:46;11.57;;;6.78;;
45103;SDS011;30865;51.288;4.572;2023-04-06T08:01:11;12.63;;;7.07;;
45103;SDS011;30865;51.288;4.572;2023-04-06T08:03:37;17.33;;;7.25;;
45103;SDS011;30865;51.288;4.572;2023-04-06T08:06:03;14.48;;;7.55;;
45103;SDS011;30865;51.288;4.572;2023-04-06T08:08:29;18.52;;;7.78;;
45103;SDS011;30865;51.288;4.572;2023-04-06T08:10:55;15.93;;;7.50;;
45103;SDS011;30865;51.288;4.572;2023-04-06T08:13:21;11.13;;;6.95;;
45103;SDS011;30865;51.288;4.572;2023-04-06T08:15:46;15.13;;;7.90;;
45103;SDS011;30865;51.288;4.572;2023-04-06T08:18:12;12.23;;;6.68;;
45103;SDS011;30865;51.288;4.572;2023-04-06T08:20:38;13.93;;;7.50;;
45103;SDS011;30865;51.288;4.572;2023-04-06T08:23:04;25.08;;;8.75;;
45103;SDS011;30865;51.288;4.572;2023-04-06T08:25:31;13.98;;;7.60;;
45103;SDS011;30865;51.288;4.572;2023-04-06T08:27:58;11.52;;;6.72;;
45103;SDS011;30865;51.288;4.572;2023-04-06T08:30:24;16.13;;;8.30;;
45103;SDS011;30865;51.288;4.572;2023-04-06T08:32:52;14.85;;;7.40;;
45103;SDS011;30865;51.288;4.572;2023-04-06T08:35:20;10.38;;;5.70;;
45103;SDS011;30865;51.288;4.572;2023-04-06T08:37:45;9.80;;;6.10;;
45103;SDS011;30865;51.288;4.572;2023-04-06T08:40:11;11.02;;;6.82;;
45103;SDS011;30865;51.288;4.572;2023-04-06T08:42:42;13.95;;;7.60;;
45103;SDS011;30865;51.288;4.572;2023-04-06T08:45:14;9.75;;;7.07;;
45103;SDS011;30865;51.288;4.572;2023-04-06T08:47:41;11.45;;;7.38;;
45103;SDS011;30865;51.288;4.572;2023-04-06T08:50:07;11.13;;;7.00;;
45103;SDS011;30865;51.288;4.572;2023-04-06T08:52:33;14.43;;;7.80;;
45103;SDS011;30865;51.288;4.572;2023-04-06T08:54:59;10.40;;;6.93;;
45103;SDS011;30865;51.288;4.572;2023-04-06T08:57:25;13.85;;;7.03;;
45103;SDS011;30865;51.288;4.572;2023-04-06T08:59:51;12.85;;;7.28;;
45103;SDS011;30865;51.288;4.572;2023-04-06T09:02:19;10.98;;;6.35;;
45103;SDS011;30865;51.288;4.572;2023-04-06T09:04:46;14.48;;;7.97;;
45103;SDS011;30865;51.288;4.572;2023-04-06T09:07:14;13.02;;;7.28;;
45103;SDS011;30865;51.288;4.572;2023-04-06T09:09:40;11.00;;;6.47;;
45103;SDS011;30865;51.288;4.572;2023-04-06T09:12:21;15.70;;;6.75;;
45103;SDS011;30865;51.288;4.572;2023-04-06T09:14:48;12.60;;;7.25;;
45103;SDS011;30865;51.288;4.572;2023-04-06T09:17:20;8.82;;;6.20;;
45103;SDS011;30865;51.288;4.572;2023-04-06T09:19:47;10.27;;;7.20;;
45103;SDS011;30865;51.288;4.572;2023-04-06T09:22:13;12.65;;;6.90;;
45103;SDS011;30865;51.288;4.572;2023-04-06T09:27:10;10.85;;;5.72;;
45103;SDS011;30865;51.288;4.572;2023-04-06T09:29:36;16.00;;;7.80;;
45103;SDS011;30865;51.288;4.572;2023-04-06T09:32:03;15.05;;;6.88;;
45103;SDS011;30865;51.288;4.572;2023-04-06T09:34:32;10.67;;;6.77;;
45103;SDS011;30865;51.288;4.572;2023-04-06T09:36:58;10.25;;;6.47;;
45103;SDS011;30865;51.288;4.572;2023-04-06T09:39:24;12.65;;;6.95;;
45103;SDS011;30865;51.288;4.572;2023-04-06T09:41:50;11.10;;;5.93;;
45103;SDS011;30865;51.288;4.572;2023-04-06T09:44:16;11.20;;;6.75;;
45103;SDS011;30865;51.288;4.572;2023-04-06T09:46:43;10.90;;;5.97;;
45103;SDS011;30865;51.288;4.572;2023-04-06T09:49:10;9.95;;;5.65;;
45103;SDS011;30865;51.288;4.572;2023-04-06T09:51:40;8.73;;;5.53;;
45103;SDS011;30865;51.288;4.572;2023-04-06T09:54:28;11.68;;;5.90;;
45103;SDS011;30865;51.288;4.572;2023-04-06T09:57:04;8.57;;;5.13;;
45103;SDS011;30865;51.288;4.572;2023-04-06T09:59:44;15.57;;;6.43;;
45103;SDS011;30865;51.288;4.572;2023-04-06T10:02:13;5.97;;;4.05;;
45103;SDS011;30865;51.288;4.572;2023-04-06T10:04:50;8.27;;;4.30;;
45103;SDS011;30865;51.288;4.572;2023-04-06T10:07:21;10.77;;;5.18;;
45103;SDS011;30865;51.288;4.572;2023-04-06T10:09:47;10.90;;;5.63;;
45103;SDS011;30865;51.288;4.572;2023-04-06T10:12:14;8.52;;;5.60;;
45103;SDS011;30865;51.288;4.572;2023-04-06T10:14:40;8.35;;;4.78;;
45103;SDS011;30865;51.288;4.572;2023-04-06T10:17:07;7.40;;;4.38;;
45103;SDS011;30865;51.288;4.572;2023-04-06T10:19:41;7.72;;;4.60;;
45103;SDS011;30865;51.288;4.572;2023-04-06T10:25:08;8.05;;;4.70;;
45103;SDS011;30865;51.288;4.572;2023-04-06T10:27:34;7.45;;;5.10;;
45103;SDS011;30865;51.288;4.572;2023-04-06T10:30:03;9.50;;;5.03;;
45103;SDS011;30865;51.288;4.572;2023-04-06T10:32:32;9.45;;;5.18;;
45103;SDS011;30865;51.288;4.572;2023-04-06T10:35:05;7.37;;;4.40;;
45103;SDS011;30865;51.288;4.572;2023-04-06T10:37:45;8.73;;;4.43;;
45103;SDS011;30865;51.288;4.572;2023-04-06T10:40:31;7.35;;;4.63;;
45103;SDS011;30865;51.288;4.572;2023-04-06T10:43:06;9.55;;;4.28;;
45103;SDS011;30865;51.288;4.572;2023-04-06T10:45:43;8.32;;;4.72;;
45103;SDS011;30865;51.288;4.572;2023-04-06T10:48:16;6.85;;;4.25;;
45103;SDS011;30865;51.288;4.572;2023-04-06T10:50:49;6.15;;;4.70;;
45103;SDS011;30865;51.288;4.572;2023-04-06T10:53:22;6.53;;;4.82;;
45103;SDS011;30865;51.288;4.572;2023-04-06T10:55:49;7.22;;;4.20;;
45103;SDS011;30865;51.288;4.572;2023-04-06T10:58:16;5.85;;;3.58;;
45103;SDS011;30865;51.288;4.572;2023-04-06T11:00:45;8.65;;;4.07;;
45103;SDS011;30865;51.288;4.572;2023-04-06T11:03:11;7.38;;;4.38;;
45103;SDS011;30865;51.288;4.572;2023-04-06T11:05:37;5.95;;;4.20;;
45103;SDS011;30865;51.288;4.572;2023-04-06T11:08:03;7.63;;;4.75;;
45103;SDS011;30865;51.288;4.572;2023-04-06T11:10:28;7.65;;;4.47;;
45103;SDS011;30865;51.288;4.572;2023-04-06T11:12:55;5.85;;;4.63;;
45103;SDS011;30865;51.288;4.572;2023-04-06T11:15:21;6.80;;;4.13;;
45103;SDS011;30865;51.288;4.572;2023-04-06T11:17:47;7.13;;;4.30;;
45103;SDS011;30865;51.288;4.572;2023-04-06T11:20:14;11.52;;;4.63;;
45103;SDS011;30865;51.288;4.572;2023-04-06T11:22:49;6.88;;;4.72;;
45103;SDS011;30865;51.288;4.572;2023-04-06T11:25:16;7.32;;;4.55;;
45103;SDS011;30865;51.288;4.572;2023-04-06T11:27:42;8.05;;;4.50;;
45103;SDS011;30865;51.288;4.572;2023-04-06T11:30:08;7.65;;;4.18;;
45103;SDS011;30865;51.288;4.572;2023-04-06T11:32:40;8.35;;;4.05;;
45103;SDS011;30865;51.288;4.572;2023-04-06T11:35:19;6.85;;;4.10;;
45103;SDS011;30865;51.288;4.572;2023-04-06T11:37:46;8.00;;;4.45;;
45103;SDS011;30865;51.288;4.572;2023-04-06T11:40:13;8.45;;;4.28;;
45103;SDS011;30865;51.288;4.572;2023-04-06T11:42:38;7.60;;;4.30;;
45103;SDS011;30865;51.288;4.572;2023-04-06T11:45:04;7.65;;;4.68;;
45103;SDS011;30865;51.288;4.572;2023-04-06T11:47:33;6.32;;;3.97;;
45103;SDS011;30865;51.288;4.572;2023-04-06T11:52:33;7.30;;;4.30;;
45103;SDS011;30865;51.288;4.572;2023-04-06T11:54:58;6.72;;;4.57;;
45103;SDS011;30865;51.288;4.572;2023-04-06T11:57:39;6.40;;;4.22;;
45103;SDS011;30865;51.288;4.572;2023-04-06T12:00:06;5.95;;;4.13;;
45103;SDS011;30865;51.288;4.572;2023-04-06T12:02:34;9.88;;;3.78;;
45103;SDS011;30865;51.288;4.572;2023-04-06T12:05:01;5.70;;;3.75;;
45103;SDS011;30865;51.288;4.572;2023-04-06T12:07:26;6.10;;;3.40;;
45103;SDS011;30865;51.288;4.572;2023-04-06T12:09:55;8.57;;;4.25;;
45103;SDS011;30865;51.288;4.572;2023-04-06T12:12:21;4.88;;;3.83;;
45103;SDS011;30865;51.288;4.572;2023-04-06T12:14:47;10.88;;;5.95;;
45103;SDS011;30865;51.288;4.572;2023-04-06T12:17:12;6.47;;;3.90;;
45103;SDS011;30865;51.288;4.572;2023-04-06T12:19:38;7.32;;;3.88;;
45103;SDS011;30865;51.288;4.572;2023-04-06T12:22:03;5.50;;;3.20;;
45103;SDS011;30865;51.288;4.572;2023-04-06T12:24:29;3.88;;;2.65;;
45103;SDS011;30865;51.288;4.572;2023-04-06T12:26:54;6.68;;;2.83;;
45103;SDS011;30865;51.288;4.572;2023-04-06T12:29:20;4.25;;;2.65;;
45103;SDS011;30865;51.288;4.572;2023-04-06T12:31:45;4.95;;;3.17;;
45103;SDS011;30865;51.288;4.572;2023-04-06T12:34:11;8.98;;;3.58;;
45103;SDS011;30865;51.288;4.572;2023-04-06T12:36:37;10.60;;;5.60;;
45103;SDS011;30865;51.288;4.572;2023-04-06T12:39:03;10.70;;;6.13;;
45103;SDS011;30865;51.288;4.572;2023-04-06T12:41:30;9.35;;;4.30;;
45103;SDS011;30865;51.288;4.572;2023-04-06T12:43:56;5.43;;;3.08;;
45103;SDS011;30865;51.288;4.572;2023-04-06T12:46:22;5.35;;;3.88;;
45103;SDS011;30865;51.288;4.572;2023-04-06T12:48:48;7.07;;;3.38;;
45103;SDS011;30865;51.288;4.572;2023-04-06T12:51:14;6.60;;;3.22;;
45103;SDS011;30865;51.288;4.572;2023-04-06T12:53:40;9.70;;;3.78;;
45103;SDS011;30865;51.288;4.572;2023-04-06T12:56:12;5.85;;;3.25;;
45103;SDS011;30865;51.288;4.572;2023-04-06T12:58:38;10.63;;;4.28;;
45103;SDS011;30865;51.288;4.572;2023-04-06T13:01:05;4.47;;;3.08;;
45103;SDS011;30865;51.288;4.572;2023-04-06T13:03:32;5.25;;;3.47;;
45103;SDS011;30865;51.288;4.572;2023-04-06T13:05:59;4.75;;;2.92;;
45103;SDS011;30865;51.288;4.572;2023-04-06T13:08:25;5.80;;;3.55;;
45103;SDS011;30865;51.288;4.572;2023-04-06T13:10:51;6.03;;;3.10;;
45103;SDS011;30865;51.288;4.572;2023-04-06T13:13:20;8.68;;;3.88;;
45103;SDS011;30865;51.288;4.572;2023-04-06T13:15:48;12.35;;;2.92;;
45103;SDS011;30865;51.288;4.572;2023-04-06T13:18:13;4.93;;;3.70;;
45103;SDS011;30865;51.288;4.572;2023-04-06T13:20:39;8.02;;;4.40;;
45103;SDS011;30865;51.288;4.572;2023-04-06T13:23:05;8.40;;;3.58;;
45103;SDS011;30865;51.288;4.572;2023-04-06T13:25:30;4.68;;;3.70;;
45103;SDS011;30865;51.288;4.572;2023-04-06T13:27:57;5.35;;;3.33;;
45103;SDS011;30865;51.288;4.572;2023-04-06T13:30:23;6.72;;;4.63;;
45103;SDS011;30865;51.288;4.572;2023-04-06T13:32:49;10.02;;;4.55;;
45103;SDS011;30865;51.288;4.572;2023-04-06T13:35:15;5.97;;;3.85;;
45103;SDS011;30865;51.288;4.572;2023-04-06T13:37:41;9.70;;;3.80;;
45103;SDS011;30865;51.288;4.572;2023-04-06T13:40:07;6.18;;;3.53;;
45103;SDS011;30865;51.288;4.572;2023-04-06T13:42:33;6.47;;;3.55;;
45103;SDS011;30865;51.288;4.572;2023-04-06T13:45:00;9.57;;;3.83;;
45103;SDS011;30865;51.288;4.572;2023-04-06T13:47:26;5.80;;;3.60;;
45103;SDS011;30865;51.288;4.572;2023-04-06T13:49:52;7.10;;;3.83;;
45103;SDS011;30865;51.288;4.572;2023-04-06T13:52:18;5.90;;;3.60;;
45103;SDS011;30865;51.288;4.572;2023-04-06T13:54:44;6.57;;;3.53;;
45103;SDS011;30865;51.288;4.572;2023-04-06T13:57:10;7.43;;;4.15;;
45103;SDS011;30865;51.288;4.572;2023-04-06T13:59:37;5.38;;;3.65;;
45103;SDS011;30865;51.288;4.572;2023-04-06T14:02:03;8.30;;;3.83;;
45103;SDS011;30865;51.288;4.572;2023-04-06T14:04:31;4.25;;;3.13;;
45103;SDS011;30865;51.288;4.572;2023-04-06T14:06:57;6.13;;;3.70;;
45103;SDS011;30865;51.288;4.572;2023-04-06T14:09:22;5.68;;;3.83;;
45103;SDS011;30865;51.288;4.572;2023-04-06T14:11:48;7.22;;;3.75;;
45103;SDS011;30865;51.288;4.572;2023-04-06T14:14:15;7.82;;;3.83;;
45103;SDS011;30865;51.288;4.572;2023-04-06T14:16:41;6.30;;;4.15;;
45103;SDS011;30865;51.288;4.572;2023-04-06T14:19:11;8.57;;;3.67;;
45103;SDS011;30865;51.288;4.572;2023-04-06T14:21:39;4.97;;;3.20;;
45103;SDS011;30865;51.288;4.572;2023-04-06T14:24:06;7.13;;;4.10;;
45103;SDS011;30865;51.288;4.572;2023-04-06T14:26:35;8.80;;;3.70;;
45103;SDS011;30865;51.288;4.572;2023-04-06T14:29:02;5.30;;;4.00;;
45103;SDS011;30865;51.288;4.572;2023-04-06T14:31:29;6.78;;;3.90;;
45103;SDS011;30865;51.288;4.572;2023-04-06T14:33:55;7.57;;;4.05;;
45103;SDS011;30865;51.288;4.572;2023-04-06T14:36:20;5.70;;;3.10;;
45103;SDS011;30865;51.288;4.572;2023-04-06T14:38:46;7.35;;;4.28;;
45103;SDS011;30865;51.288;4.572;2023-04-06T14:41:19;5.43;;;3.67;;
45103;SDS011;30865;51.288;4.572;2023-04-06T14:43:46;5.82;;;3.33;;